createdAt,value
2023-02-14T00:01:12.893Z,99545.44
2023-02-14T00:03:39.956Z,99535.38
2023-02-14T00:06:09.175Z,99551.22
2023-02-14T00:08:36.599Z,99551.53
2023-02-14T00:11:04.278Z,99548.28
2023-02-14T00:13:31.406Z,99552.50
2023-02-14T00:15:57.919Z,99529.03
2023-02-14T00:18:44.337Z,99542.38
2023-02-14T00:21:10.881Z,99531.72
2023-02-14T00:23:37.540Z,99534.31
2023-02-14T00:26:04.065Z,99536.13
2023-02-14T00:28:30.496Z,99543.06
2023-02-14T00:30:58.154Z,99544.13
2023-02-14T00:33:24.885Z,99526.81
2023-02-14T00:35:51.414Z,99518.34
2023-02-14T00:38:17.860Z,99530.84
2023-02-14T00:40:44.604Z,99521.78
2023-02-14T00:43:11.070Z,99522.47
2023-02-14T00:45:37.552Z,99533.44
2023-02-14T00:48:04.323Z,99535.91
2023-02-14T00:50:30.810Z,99517.56
2023-02-14T00:52:57.242Z,99512.53
2023-02-14T00:55:23.687Z,99506.09
2023-02-14T00:57:50.135Z,99491.66
2023-02-14T01:00:16.889Z,99516.00
2023-02-14T01:02:43.422Z,99513.75
2023-02-14T01:05:09.948Z,99510.13
2023-02-14T01:07:36.435Z,99500.38
2023-02-14T01:10:02.995Z,99500.44
2023-02-14T01:12:29.457Z,99499.03
2023-02-14T01:14:55.931Z,99504.84
2023-02-14T01:17:25.290Z,99494.72
2023-02-14T01:19:52.943Z,99499.25
2023-02-14T01:22:19.612Z,99510.94
2023-02-14T01:24:46.113Z,99507.19
2023-02-14T01:27:12.887Z,99509.44
2023-02-14T01:29:39.375Z,99511.66
2023-02-14T01:32:05.906Z,99505.69
2023-02-14T01:34:33.056Z,99480.00
2023-02-14T01:36:59.618Z,99500.81
2023-02-14T01:39:26.676Z,99505.06
2023-02-14T01:41:56.608Z,99507.31
2023-02-14T01:44:26.029Z,99517.22
2023-02-14T01:46:54.680Z,99496.59
2023-02-14T01:49:35.502Z,99499.63
2023-02-14T01:52:10.188Z,99501.47
2023-02-14T01:54:41.424Z,99493.44
2023-02-14T01:57:12.987Z,99506.22
2023-02-14T01:59:47.106Z,99508.91
2023-02-14T02:02:13.697Z,99486.44
2023-02-14T02:04:44.855Z,99512.63
2023-02-14T02:07:17.518Z,99502.66
2023-02-14T02:09:48.922Z,99510.63
2023-02-14T02:12:15.429Z,99501.22
2023-02-14T02:14:42.995Z,99483.81
2023-02-14T02:17:21.232Z,99497.25
2023-02-14T02:20:16.604Z,99489.88
2023-02-14T02:23:13.625Z,99485.13
2023-02-14T02:26:16.645Z,99485.88
2023-02-14T02:29:21.040Z,99471.34
2023-02-14T02:32:12.563Z,99485.00
2023-02-14T02:35:05.648Z,99485.59
2023-02-14T02:37:38.584Z,99483.06
2023-02-14T02:40:29.851Z,99478.03
2023-02-14T02:43:03.214Z,99484.59
2023-02-14T02:46:20.278Z,99457.69
2023-02-14T02:48:50.430Z,99448.16
2023-02-14T02:52:02.978Z,99456.56
2023-02-14T02:54:44.631Z,99472.16
2023-02-14T02:57:21.969Z,99448.66
2023-02-14T02:59:51.661Z,99451.53
2023-02-14T03:02:25.793Z,99464.56
2023-02-14T03:04:59.169Z,99463.38
2023-02-14T03:07:35.553Z,99444.63
2023-02-14T03:10:06.126Z,99424.91
2023-02-14T03:12:37.372Z,99455.44
2023-02-14T03:15:37.364Z,99450.00
2023-02-14T03:18:53.827Z,99448.50
2023-02-14T03:21:44.849Z,99441.00
2023-02-14T03:24:23.634Z,99435.44
2023-02-14T03:27:02.925Z,99457.69
2023-02-14T03:29:45.095Z,99449.16
2023-02-14T03:32:22.990Z,99446.91
2023-02-14T03:35:00.448Z,99429.97
2023-02-14T03:37:36.743Z,99446.47
2023-02-14T03:40:06.660Z,99445.38
2023-02-14T03:42:45.283Z,99443.78
2023-02-14T03:45:18.410Z,99445.00
2023-02-14T03:47:46.585Z,99422.88
2023-02-14T03:50:19.311Z,99430.31
2023-02-14T03:52:49.614Z,99443.31
2023-02-14T03:55:19.928Z,99442.47
2023-02-14T03:57:54.263Z,99419.81
2023-02-14T04:00:20.918Z,99400.25
2023-02-14T04:02:53.948Z,99423.72
2023-02-14T04:05:25.099Z,99419.41
2023-02-14T04:07:55.137Z,99441.44
2023-02-14T04:10:22.764Z,99446.28
2023-02-14T04:12:49.389Z,99416.53
2023-02-14T04:15:16.765Z,99439.13
2023-02-14T04:18:02.318Z,99443.59
2023-02-14T04:20:29.565Z,99443.91
2023-02-14T04:22:56.208Z,99431.72
2023-02-14T04:25:23.691Z,99442.50
2023-02-14T04:27:50.225Z,99425.06
2023-02-14T04:30:18.099Z,99446.00
2023-02-14T04:32:45.075Z,99410.13
2023-02-14T04:35:11.631Z,99436.72
2023-02-14T04:37:38.542Z,99449.22
2023-02-14T04:40:06.035Z,99450.72
2023-02-14T04:42:32.530Z,99448.84
2023-02-14T04:44:59.177Z,99429.53
2023-02-14T04:47:25.650Z,99432.91
2023-02-14T04:49:52.132Z,99445.06
2023-02-14T04:52:18.645Z,99436.47
2023-02-14T04:54:45.095Z,99433.34
2023-02-14T04:57:11.527Z,99410.69
2023-02-14T04:59:37.985Z,99445.66
2023-02-14T05:02:04.505Z,99444.19
2023-02-14T05:04:31.032Z,99454.59
2023-02-14T05:06:57.566Z,99440.91
2023-02-14T05:09:24.094Z,99451.88
2023-02-14T05:11:50.595Z,99454.94
2023-02-14T05:14:17.122Z,99449.69
2023-02-14T05:16:43.699Z,99455.09
2023-02-14T05:19:10.234Z,99458.22
2023-02-14T05:21:36.993Z,99436.09
2023-02-14T05:24:05.834Z,99451.81
2023-02-14T05:26:32.369Z,99449.94
2023-02-14T05:28:58.822Z,99451.38
2023-02-14T05:31:25.521Z,99451.69
2023-02-14T05:33:52.036Z,99440.94
2023-02-14T05:36:18.936Z,99455.22
2023-02-14T05:38:45.421Z,99455.28
2023-02-14T05:41:11.884Z,99431.84
2023-02-14T05:43:38.416Z,99441.25
2023-02-14T05:46:07.469Z,99450.50
2023-02-14T05:48:34.117Z,99424.75
2023-02-14T05:51:09.127Z,99438.69
2023-02-14T05:53:38.537Z,99455.69
2023-02-14T05:56:09.686Z,99448.66
2023-02-14T05:58:39.206Z,99455.25
2023-02-14T06:01:08.525Z,99437.19
2023-02-14T06:03:37.424Z,99444.94
2023-02-14T06:06:03.958Z,99450.56
2023-02-14T06:08:30.443Z,99420.66
2023-02-14T06:10:56.994Z,99424.75
2023-02-14T06:13:24.866Z,99457.06
2023-02-14T06:15:51.317Z,99409.28
2023-02-14T06:18:17.801Z,99455.34
2023-02-14T06:20:44.236Z,99444.91
2023-02-14T06:23:11.126Z,99460.34
2023-02-14T06:25:37.960Z,99441.25
2023-02-14T06:28:06.948Z,99470.28
2023-02-14T06:30:33.913Z,99454.47
2023-02-14T06:33:10.760Z,99435.56
2023-02-14T06:35:40.247Z,99457.75
2023-02-14T06:38:08.654Z,99456.25
2023-02-14T06:40:38.036Z,99429.97
2023-02-14T06:43:05.467Z,99424.50
2023-02-14T06:45:32.546Z,99451.47
2023-02-14T06:48:00.215Z,99444.88
2023-02-14T06:50:27.213Z,99419.19
2023-02-14T06:52:54.063Z,99457.31
2023-02-14T06:55:20.999Z,99449.22
2023-02-14T06:57:47.499Z,99467.59
2023-02-14T07:00:14.973Z,99472.34
2023-02-14T07:02:41.841Z,99477.59
2023-02-14T07:05:08.749Z,99475.50
2023-02-14T07:07:36.296Z,99483.06
2023-02-14T07:10:03.293Z,99454.78
2023-02-14T07:12:29.790Z,99467.78
2023-02-14T07:14:56.361Z,99435.72
2023-02-14T07:17:22.830Z,99450.38
2023-02-14T07:19:49.248Z,99468.19
2023-02-14T07:22:15.750Z,99478.09
2023-02-14T07:24:42.569Z,99443.41
2023-02-14T07:27:09.101Z,99444.56
2023-02-14T07:29:37.572Z,99434.50
2023-02-14T07:32:04.528Z,99469.31
2023-02-14T07:34:31.357Z,99469.56
2023-02-14T07:36:57.850Z,99459.03
2023-02-14T07:39:24.432Z,99449.75
2023-02-14T07:41:53.051Z,99455.38
2023-02-14T07:44:20.007Z,99453.94
2023-02-14T07:46:46.674Z,99407.97
2023-02-14T07:49:13.140Z,99433.50
2023-02-14T07:51:39.659Z,99425.47
2023-02-14T07:54:07.429Z,99432.19
2023-02-14T07:56:33.992Z,99424.50
2023-02-14T07:59:00.516Z,99422.44
2023-02-14T08:01:27.077Z,99388.47
2023-02-14T08:03:53.639Z,99395.59
2023-02-14T08:06:20.647Z,99429.72
2023-02-14T08:08:49.150Z,99428.44
2023-02-14T08:11:38.970Z,99422.56
2023-02-14T08:14:08.663Z,99429.53
2023-02-14T08:16:42.512Z,99412.56
2023-02-14T08:19:11.551Z,99419.38
2023-02-14T08:21:38.024Z,99394.88
2023-02-14T08:24:06.628Z,99426.19
2023-02-14T08:26:33.230Z,99365.44
2023-02-14T08:29:01.611Z,99421.69
2023-02-14T08:31:35.540Z,99419.44
2023-02-14T08:34:04.217Z,99424.94
2023-02-14T08:36:30.860Z,99416.94
2023-02-14T08:38:57.748Z,99429.00
2023-02-14T08:41:24.944Z,99432.09
2023-02-14T08:43:51.433Z,99386.53
2023-02-14T08:46:18.413Z,99394.63
2023-02-14T08:48:45.265Z,99397.88
2023-02-14T08:51:14.417Z,99415.50
2023-02-14T08:53:41.786Z,99416.56
2023-02-14T08:56:15.091Z,99411.59
2023-02-14T08:58:41.843Z,99409.97
2023-02-14T09:01:17.257Z,99415.22
2023-02-14T09:03:44.562Z,99391.47
2023-02-14T09:06:17.410Z,99419.59
2023-02-14T09:08:45.076Z,99420.16
2023-02-14T09:11:15.117Z,99382.00
2023-02-14T09:13:43.187Z,99426.56
2023-02-14T09:16:11.970Z,99425.88
2023-02-14T09:18:39.094Z,99409.81
2023-02-14T09:21:10.751Z,99407.75
2023-02-14T09:23:38.430Z,99379.19
2023-02-14T09:26:10.824Z,99408.75
2023-02-14T09:28:40.446Z,99355.88
2023-02-14T09:31:09.995Z,99406.88
2023-02-14T09:33:40.337Z,99403.22
2023-02-14T09:36:28.442Z,99372.97
2023-02-14T09:38:54.984Z,99399.38
2023-02-14T09:41:30.432Z,99400.63
2023-02-14T09:44:03.351Z,99397.44
2023-02-14T09:46:36.919Z,99381.50
2023-02-14T09:49:03.482Z,99382.72
2023-02-14T09:51:33.245Z,99366.81
2023-02-14T09:54:14.068Z,99383.03
2023-02-14T09:56:52.748Z,99381.47
2023-02-14T09:59:27.400Z,99378.41
2023-02-14T10:02:02.985Z,99370.06
2023-02-14T10:04:39.809Z,99353.88
2023-02-14T10:07:22.977Z,99353.81
2023-02-14T10:09:56.427Z,99345.28
2023-02-14T10:12:26.502Z,99366.09
2023-02-14T10:14:56.652Z,99346.41
2023-02-14T10:17:40.476Z,99362.19
2023-02-14T10:20:25.472Z,99362.88
2023-02-14T10:23:37.071Z,99355.38
2023-02-14T10:26:19.606Z,99340.88
2023-02-14T10:28:49.313Z,99332.28
2023-02-14T10:31:34.353Z,99340.84
2023-02-14T10:34:24.502Z,99337.94
2023-02-14T10:37:09.411Z,99331.78
2023-02-14T10:39:57.792Z,99332.34
2023-02-14T10:42:41.246Z,99337.22
2023-02-14T10:45:30.453Z,99334.56
2023-02-14T10:48:13.830Z,99307.09
2023-02-14T10:51:07.341Z,99321.47
2023-02-14T10:54:12.099Z,99311.00
2023-02-14T10:56:43.564Z,99326.09
2023-02-14T10:59:26.069Z,99329.84
2023-02-14T11:01:54.987Z,99292.75
2023-02-14T11:04:24.127Z,99306.31
2023-02-14T11:06:51.147Z,99295.41
2023-02-14T11:09:18.883Z,99258.53
2023-02-14T11:11:53.343Z,99299.22
2023-02-14T11:14:32.356Z,99290.19
2023-02-14T11:17:00.822Z,99283.31
2023-02-14T11:19:29.896Z,99279.34
2023-02-14T11:21:58.534Z,99273.06
2023-02-14T11:24:27.862Z,99264.00
2023-02-14T11:27:02.760Z,99238.06
2023-02-14T11:29:41.535Z,99256.63
2023-02-14T11:32:25.335Z,99256.06
2023-02-14T11:35:16.830Z,99249.84
2023-02-14T11:37:53.475Z,99239.50
2023-02-14T11:40:29.130Z,99236.31
2023-02-14T11:43:13.350Z,99211.19
2023-02-14T11:45:42.757Z,99224.41
2023-02-14T11:48:36.772Z,99224.09
2023-02-14T11:51:10.847Z,99205.84
2023-02-14T11:53:45.703Z,99217.22
2023-02-14T11:56:13.044Z,99204.53
2023-02-14T11:58:48.593Z,99212.63
2023-02-14T12:01:41.392Z,99204.47
2023-02-14T12:04:17.768Z,99201.88
2023-02-14T12:06:45.766Z,99176.03
2023-02-14T12:09:24.543Z,99198.66
2023-02-14T12:11:56.629Z,99190.56
2023-02-14T12:14:25.146Z,99175.59
2023-02-14T12:17:21.861Z,99188.56
2023-02-14T12:20:17.718Z,99179.19
2023-02-14T12:22:54.575Z,99163.78
2023-02-14T12:25:25.981Z,99139.72
2023-02-14T12:27:58.770Z,99157.88
2023-02-14T12:30:28.851Z,99131.66
2023-02-14T12:32:56.707Z,99147.09
2023-02-14T12:35:53.555Z,99150.78
2023-02-14T12:38:56.072Z,99130.56
2023-02-14T12:41:47.609Z,99124.19
2023-02-14T12:44:38.726Z,99119.22
2023-02-14T12:47:20.448Z,99110.75
2023-02-14T12:50:32.085Z,99124.88
2023-02-14T12:53:12.003Z,99114.97
2023-02-14T12:55:58.733Z,99093.47
2023-02-14T12:58:49.433Z,99104.44
2023-02-14T13:01:38.752Z,99106.53
2023-02-14T13:04:31.526Z,99095.72
2023-02-14T13:07:16.893Z,99096.31
2023-02-14T13:09:59.670Z,99096.16
2023-02-14T13:12:38.401Z,99090.56
2023-02-14T13:15:32.986Z,99095.34
2023-02-14T13:18:07.208Z,99091.41
2023-02-14T13:20:54.243Z,99078.19
2023-02-14T13:23:27.613Z,99067.13
2023-02-14T13:26:06.869Z,99074.56
2023-02-14T13:28:38.527Z,99068.09
2023-02-14T13:31:05.977Z,99061.28
2023-02-14T13:33:41.317Z,99058.66
2023-02-14T13:36:12.612Z,99056.69
2023-02-14T13:38:58.521Z,99042.19
2023-02-14T13:41:26.538Z,99047.38
2023-02-14T13:43:56.183Z,99045.72
2023-02-14T13:46:47.408Z,99029.59
2023-02-14T13:49:32.856Z,99027.63
2023-02-14T13:52:03.630Z,99025.47
2023-02-14T13:54:43.215Z,99017.25
2023-02-14T13:57:34.047Z,99029.94
2023-02-14T14:00:19.063Z,99023.06
2023-02-14T14:03:05.112Z,99023.59
2023-02-14T14:05:40.413Z,99004.91
2023-02-14T14:08:27.911Z,99010.69
2023-02-14T14:10:57.965Z,98988.06
2023-02-14T14:13:42.824Z,99005.53
2023-02-14T14:16:27.808Z,99004.47
2023-02-14T14:19:01.667Z,99002.97
2023-02-14T14:21:29.782Z,98999.34
2023-02-14T14:24:20.905Z,98992.53
2023-02-14T14:26:59.482Z,98995.88
2023-02-14T14:29:31.887Z,99000.03
2023-02-14T14:31:58.656Z,99001.56
2023-02-14T14:34:27.647Z,98984.56
2023-02-14T14:37:03.634Z,98990.19
2023-02-14T14:39:34.003Z,98995.78
2023-02-14T14:42:14.853Z,98988.81
2023-02-14T14:44:54.177Z,98988.28
2023-02-14T14:47:24.833Z,98984.03
2023-02-14T14:50:03.812Z,98975.28
2023-02-14T14:52:41.460Z,98973.47
2023-02-14T14:55:17.023Z,98986.03
2023-02-14T14:57:50.406Z,98967.94
2023-02-14T15:00:22.121Z,98979.84
2023-02-14T15:03:11.521Z,98979.97
2023-02-14T15:05:45.265Z,98977.75
2023-02-14T15:08:34.231Z,98973.00
2023-02-14T15:11:48.716Z,98971.13
2023-02-14T15:14:21.291Z,98957.06
2023-02-14T15:16:57.737Z,98966.91
2023-02-14T15:19:54.942Z,98969.72
2023-02-14T15:22:44.266Z,98964.66
2023-02-14T15:25:16.751Z,98953.75
2023-02-14T15:27:43.635Z,98956.00
2023-02-14T15:30:19.340Z,98952.13
2023-02-14T15:32:49.430Z,98951.06
2023-02-14T15:35:18.657Z,98951.81
2023-02-14T15:37:46.770Z,98949.41
2023-02-14T15:40:28.124Z,98946.25
2023-02-14T15:42:58.998Z,98926.09
2023-02-14T15:45:28.288Z,98953.38
2023-02-14T15:48:00.145Z,98950.22
2023-02-14T15:50:32.382Z,98935.13
2023-02-14T15:53:19.724Z,98943.97
2023-02-14T15:55:50.637Z,98942.59
2023-02-14T15:58:32.310Z,98949.16
2023-02-14T16:00:59.902Z,98949.44
2023-02-14T16:03:30.876Z,98946.19
2023-02-14T16:05:57.622Z,98942.56
2023-02-14T16:08:32.861Z,98945.34
2023-02-14T16:11:01.034Z,98947.84
2023-02-14T16:13:38.226Z,98941.22
2023-02-14T16:16:12.798Z,98939.97
2023-02-14T16:18:55.922Z,98913.19
2023-02-14T16:21:24.162Z,98943.56
2023-02-14T16:24:13.221Z,98943.69
2023-02-14T16:26:47.001Z,98909.69
2023-02-14T16:29:16.377Z,98941.72
2023-02-14T16:34:38.116Z,98915.13
2023-02-14T16:37:24.552Z,98943.53
2023-02-14T16:39:54.038Z,98930.84
2023-02-14T16:42:20.752Z,98943.13
2023-02-14T16:44:47.746Z,98937.78
2023-02-14T16:47:16.171Z,98919.69
2023-02-14T16:49:47.200Z,98949.81
2023-02-14T16:52:20.692Z,98944.31
2023-02-14T16:54:48.296Z,98947.28
2023-02-14T16:57:23.447Z,98925.47
2023-02-14T16:59:51.045Z,98949.25
2023-02-14T17:02:19.072Z,98937.03
2023-02-14T17:04:45.683Z,98948.41
2023-02-14T17:07:16.110Z,98917.28
2023-02-14T17:09:53.382Z,98918.91
2023-02-14T17:12:27.037Z,98942.19
2023-02-14T17:14:57.187Z,98949.38
2023-02-14T17:17:24.411Z,98959.47
2023-02-14T17:19:52.816Z,98938.41
2023-02-14T17:22:20.188Z,98951.44
2023-02-14T17:24:46.847Z,98917.38
2023-02-14T17:27:13.820Z,98949.50
2023-02-14T17:29:43.193Z,98955.00
2023-02-14T17:32:15.660Z,98946.50
2023-02-14T17:34:45.834Z,98924.22
2023-02-14T17:37:15.884Z,98927.22
2023-02-14T17:39:45.523Z,98943.91
2023-02-14T17:42:15.022Z,98964.22
2023-02-14T17:44:44.295Z,98952.06
2023-02-14T17:47:12.904Z,98958.72
2023-02-14T17:49:39.386Z,98947.38
2023-02-14T17:52:05.902Z,98950.66
2023-02-14T17:54:36.999Z,98965.00
2023-02-14T17:57:04.622Z,98965.13
2023-02-14T17:59:34.858Z,98960.91
2023-02-14T18:02:01.358Z,98927.03
2023-02-14T18:04:29.977Z,98957.81
2023-02-14T18:06:56.607Z,98936.19
2023-02-14T18:09:25.720Z,98967.91
2023-02-14T18:11:52.243Z,98959.53
2023-02-14T18:14:21.510Z,98952.56
2023-02-14T18:16:48.766Z,98965.19
2023-02-14T18:19:19.152Z,98954.06
2023-02-14T18:21:46.882Z,98962.66
2023-02-14T18:24:15.934Z,98961.31
2023-02-14T18:26:47.201Z,98970.16
2023-02-14T18:29:17.860Z,98948.72
2023-02-14T18:31:47.672Z,98959.19
2023-02-14T18:34:17.654Z,98959.38
2023-02-14T18:36:47.055Z,98959.38
2023-02-14T18:39:17.306Z,98969.28
2023-02-14T18:41:47.049Z,98960.81
2023-02-14T18:44:18.145Z,98955.16
2023-02-14T18:46:46.415Z,98954.16
2023-02-14T18:49:17.044Z,98977.41
2023-02-14T18:51:46.425Z,98939.31
2023-02-14T18:54:16.118Z,98971.94
2023-02-14T18:56:47.034Z,98929.63
2023-02-14T18:59:17.430Z,98974.34
2023-02-14T19:01:45.797Z,98967.53
2023-02-14T19:04:16.471Z,98972.44
2023-02-14T19:06:46.688Z,98937.22
2023-02-14T19:09:19.948Z,98971.72
2023-02-14T19:11:46.934Z,98978.13
2023-02-14T19:14:18.344Z,98983.31
2023-02-14T19:16:55.537Z,98953.44
2023-02-14T19:19:23.276Z,98977.41
2023-02-14T19:21:50.747Z,98939.78
2023-02-14T19:24:18.264Z,98982.81
2023-02-14T19:26:46.132Z,98969.94
2023-02-14T19:29:18.412Z,98956.19
2023-02-14T19:31:54.888Z,98981.28
2023-02-14T19:34:29.735Z,98966.47
2023-02-14T19:36:58.928Z,98970.13
2023-02-14T19:39:25.679Z,98937.78
2023-02-14T19:41:52.370Z,98979.75
2023-02-14T19:44:19.017Z,98972.41
2023-02-14T19:46:46.561Z,98962.78
2023-02-14T19:49:18.415Z,98973.53
2023-02-14T19:51:49.272Z,98981.78
2023-02-14T19:54:18.971Z,98963.16
2023-02-14T19:56:48.769Z,98958.28
2023-02-14T19:59:22.700Z,98934.75
2023-02-14T20:01:56.480Z,98978.53
2023-02-14T20:04:25.406Z,98967.41
2023-02-14T20:06:52.771Z,98973.09
2023-02-14T20:09:21.769Z,98976.19
2023-02-14T20:11:57.219Z,98987.31
2023-02-14T20:14:26.527Z,98986.75
2023-02-14T20:16:55.699Z,98984.00
2023-02-14T20:19:26.994Z,98987.91
2023-02-14T20:21:53.935Z,98948.19
2023-02-14T20:24:28.091Z,98921.88
2023-02-14T20:26:55.187Z,98974.94
2023-02-14T20:29:23.134Z,98974.41
2023-02-14T20:31:52.781Z,98964.22
2023-02-14T20:34:20.536Z,98978.38
2023-02-14T20:36:53.353Z,98952.16
2023-02-14T20:39:21.547Z,98971.50
2023-02-14T20:41:50.198Z,98967.50
2023-02-14T20:44:21.196Z,98930.06
2023-02-14T20:46:53.652Z,98949.72
2023-02-14T20:49:22.498Z,98962.66
2023-02-14T20:51:50.579Z,98952.25
2023-02-14T20:54:22.529Z,98957.94
2023-02-14T20:56:50.675Z,98959.91
2023-02-14T20:59:21.796Z,98963.66
2023-02-14T21:01:48.525Z,98951.69
2023-02-14T21:04:17.792Z,98968.13
2023-02-14T21:06:49.050Z,98968.81
2023-02-14T21:09:20.680Z,98967.69
2023-02-14T21:11:47.314Z,98966.66
2023-02-14T21:14:17.447Z,98957.78
2023-02-14T21:16:46.777Z,98967.41
2023-02-14T21:19:15.445Z,98960.03
2023-02-14T21:21:47.569Z,98939.53
2023-02-14T21:24:17.246Z,98951.53
2023-02-14T21:26:47.787Z,98928.69
2023-02-14T21:29:17.285Z,98951.81
2023-02-14T21:31:45.188Z,98942.91
2023-02-14T21:34:18.397Z,98962.66
2023-02-14T21:36:47.893Z,98957.69
2023-02-14T21:39:20.885Z,98949.16
2023-02-14T21:41:47.417Z,98952.38
2023-02-14T21:44:36.577Z,98939.41
2023-02-14T21:47:03.219Z,98961.13
2023-02-14T21:49:48.185Z,98921.88
2023-02-14T21:52:15.355Z,98948.19
2023-02-14T21:54:41.886Z,98945.84
2023-02-14T21:57:08.636Z,98928.16
2023-02-14T21:59:35.134Z,98953.50
2023-02-14T22:02:01.665Z,98949.03
2023-02-14T22:04:28.147Z,98955.44
2023-02-14T22:06:54.674Z,98940.28
2023-02-14T22:09:21.150Z,98944.31
2023-02-14T22:11:50.924Z,98948.75
2023-02-14T22:14:18.220Z,98955.31
2023-02-14T22:16:44.852Z,98939.28
2023-02-14T22:19:14.795Z,98934.00
2023-02-14T22:21:42.146Z,98923.84
2023-02-14T22:24:08.825Z,98954.03
2023-02-14T22:26:40.750Z,98936.78
2023-02-14T22:29:10.385Z,98947.78
2023-02-14T22:31:40.220Z,98955.03
2023-02-14T22:34:08.749Z,98958.34
2023-02-14T22:36:35.627Z,98957.53
2023-02-14T22:39:02.794Z,98953.75
2023-02-14T22:41:29.414Z,98951.84
2023-02-14T22:43:56.227Z,98955.03
2023-02-14T22:46:28.112Z,98956.56
2023-02-14T22:48:56.206Z,98966.44
2023-02-14T22:51:27.003Z,98963.06
2023-02-14T22:53:56.885Z,98971.69
2023-02-14T22:56:26.655Z,98968.84
2023-02-14T22:58:59.124Z,98970.72
2023-02-14T23:01:26.206Z,98967.47
2023-02-14T23:03:58.156Z,98966.06
2023-02-14T23:06:26.778Z,98974.53
2023-02-14T23:08:54.467Z,98963.72
2023-02-14T23:11:24.299Z,98964.94
2023-02-14T23:14:13.138Z,98986.38
2023-02-14T23:16:59.147Z,98947.50
2023-02-14T23:19:47.336Z,98990.88
2023-02-14T23:22:22.207Z,98995.00
2023-02-14T23:24:55.086Z,98996.25
2023-02-14T23:27:26.051Z,98976.63
2023-02-14T23:29:52.554Z,98995.69
2023-02-14T23:32:21.446Z,98981.63
2023-02-14T23:34:48.214Z,98992.50
2023-02-14T23:37:15.013Z,98974.31
2023-02-14T23:39:42.128Z,98981.75
2023-02-14T23:42:13.442Z,98992.94
2023-02-14T23:44:40.730Z,98990.06
2023-02-14T23:47:08.635Z,98990.44
2023-02-14T23:49:36.996Z,98987.34
2023-02-14T23:52:04.802Z,98988.13
2023-02-14T23:54:31.309Z,98988.34
2023-02-14T23:56:57.876Z,98988.19
2023-02-14T23:59:24.940Z,98987.81
